sensor_id;sensor_type;location;lat;lon;timestamp;temperature;humidity
4207;DHT22;2117;47.972;7.830;2022-11-20T02:31:55;7.00;99.90
4207;DHT22;2117;47.972;7.830;2022-11-20T02:34:21;7.10;99.90
4207;DHT22;2117;47.972;7.830;2022-11-20T02:36:48;7.00;99.90
4207;DHT22;2117;47.972;7.830;2022-11-20T02:39:15;7.10;99.90
4207;DHT22;2117;47.972;7.830;2022-11-20T02:41:42;7.10;99.90
4207;DHT22;2117;47.972;7.830;2022-11-20T02:44:08;7.10;99.90
4207;DHT22;2117;47.972;7.830;2022-11-20T02:46:34;7.10;99.90
4207;DHT22;2117;47.972;7.830;2022-11-20T02:49:01;7.20;99.90
4207;DHT22;2117;47.972;7.830;2022-11-20T02:51:27;7.10;99.90
4207;DHT22;2117;47.972;7.830;2022-11-20T02:53:52;7.10;99.90
4207;DHT22;2117;47.972;7.830;2022-11-20T02:56:18;7.10;99.90
4207;DHT22;2117;47.972;7.830;2022-11-20T02:58:43;7.10;99.90
4207;DHT22;2117;47.972;7.830;2022-11-20T03:01:09;7.10;99.90
4207;DHT22;2117;47.972;7.830;2022-11-20T03:03:35;7.10;99.90
4207;DHT22;2117;47.972;7.830;2022-11-20T03:06:00;7.10;99.90
4207;DHT22;2117;47.972;7.830;2022-11-20T03:08:26;7.00;99.90
4207;DHT22;2117;47.972;7.830;2022-11-20T03:10:51;7.10;99.90
4207;DHT22;2117;47.972;7.830;2022-11-20T03:13:17;7.10;99.90
4207;DHT22;2117;47.972;7.830;2022-11-20T03:15:43;7.00;99.90
4207;DHT22;2117;47.972;7.830;2022-11-20T03:18:08;7.00;99.90
4207;DHT22;2117;47.972;7.830;2022-11-20T03:20:34;7.00;99.90
4207;DHT22;2117;47.972;7.830;2022-11-20T03:22:59;7.00;99.90
4207;DHT22;2117;47.972;7.830;2022-11-20T03:25:25;7.00;99.90
4207;DHT22;2117;47.972;7.830;2022-11-20T03:27:51;7.00;99.90
4207;DHT22;2117;47.972;7.830;2022-11-20T03:30:17;7.00;99.90
4207;DHT22;2117;47.972;7.830;2022-11-20T03:32:42;7.00;99.90
4207;DHT22;2117;47.972;7.830;2022-11-20T03:35:08;7.00;99.90
4207;DHT22;2117;47.972;7.830;2022-11-20T03:37:34;7.00;99.90
4207;DHT22;2117;47.972;7.830;2022-11-20T03:39:59;7.00;99.90
4207;DHT22;2117;47.972;7.830;2022-11-20T03:42:25;7.00;99.90
4207;DHT22;2117;47.972;7.830;2022-11-20T03:45:09;7.00;99.90
4207;DHT22;2117;47.972;7.830;2022-11-20T03:47:35;7.10;99.90
4207;DHT22;2117;47.972;7.830;2022-11-20T03:50:01;7.00;99.90
4207;DHT22;2117;47.972;7.830;2022-11-20T03:52:26;7.10;99.90
4207;DHT22;2117;47.972;7.830;2022-11-20T03:54:52;7.10;99.90
4207;DHT22;2117;47.972;7.830;2022-11-20T03:57:17;7.10;99.90
4207;DHT22;2117;47.972;7.830;2022-11-20T03:59:43;7.10;99.90
4207;DHT22;2117;47.972;7.830;2022-11-20T04:02:08;7.10;99.90
4207;DHT22;2117;47.972;7.830;2022-11-20T04:04:34;7.10;99.90
4207;DHT22;2117;47.972;7.830;2022-11-20T04:06:59;7.10;99.90
4207;DHT22;2117;47.972;7.830;2022-11-20T04:09:25;7.10;99.90
4207;DHT22;2117;47.972;7.830;2022-11-20T04:11:50;7.10;99.90
4207;DHT22;2117;47.972;7.830;2022-11-20T04:14:16;7.10;99.90
4207;DHT22;2117;47.972;7.830;2022-11-20T04:16:42;7.10;99.90
4207;DHT22;2117;47.972;7.830;2022-11-20T04:19:14;7.10;99.90
4207;DHT22;2117;47.972;7.830;2022-11-20T04:21:40;7.10;99.90
4207;DHT22;2117;47.972;7.830;2022-11-20T04:24:06;7.20;99.90
4207;DHT22;2117;47.972;7.830;2022-11-20T04:26:33;7.20;99.90
4207;DHT22;2117;47.972;7.830;2022-11-20T04:28:59;7.20;99.90
4207;DHT22;2117;47.972;7.830;2022-11-20T04:31:28;7.10;99.90
4207;DHT22;2117;47.972;7.830;2022-11-20T04:33:54;7.10;99.90
4207;DHT22;2117;47.972;7.830;2022-11-20T04:36:24;7.10;99.90
4207;DHT22;2117;47.972;7.830;2022-11-20T04:38:58;7.10;99.90
4207;DHT22;2117;47.972;7.830;2022-11-20T04:41:26;7.10;99.90
4207;DHT22;2117;47.972;7.830;2022-11-20T04:43:54;7.10;99.90
4207;DHT22;2117;47.972;7.830;2022-11-20T04:46:29;7.10;99.90
4207;DHT22;2117;47.972;7.830;2022-11-20T04:48:55;7.10;99.90
4207;DHT22;2117;47.972;7.830;2022-11-20T04:51:21;7.00;99.90
4207;DHT22;2117;47.972;7.830;2022-11-20T04:53:47;7.00;99.90
4207;DHT22;2117;47.972;7.830;2022-11-20T04:56:13;7.10;99.90
4207;DHT22;2117;47.972;7.830;2022-11-20T04:58:39;7.10;99.90
4207;DHT22;2117;47.972;7.830;2022-11-20T05:01:07;7.00;99.90
4207;DHT22;2117;47.972;7.830;2022-11-20T05:03:34;7.00;99.90
4207;DHT22;2117;47.972;7.830;2022-11-20T05:06:04;7.00;99.90
4207;DHT22;2117;47.972;7.830;2022-11-20T05:08:31;7.00;99.90
4207;DHT22;2117;47.972;7.830;2022-11-20T05:11:04;7.00;99.90
4207;DHT22;2117;47.972;7.830;2022-11-20T05:13:30;6.90;99.90
4207;DHT22;2117;47.972;7.830;2022-11-20T05:16:00;6.90;99.90
4207;DHT22;2117;47.972;7.830;2022-11-20T05:18:26;6.90;99.90
4207;DHT22;2117;47.972;7.830;2022-11-20T05:20:55;6.90;99.90
4207;DHT22;2117;47.972;7.830;2022-11-20T05:23:21;6.90;99.90
4207;DHT22;2117;47.972;7.830;2022-11-20T05:25:47;6.90;99.90
4207;DHT22;2117;47.972;7.830;2022-11-20T05:28:12;7.00;99.90
4207;DHT22;2117;47.972;7.830;2022-11-20T05:30:38;7.00;99.90
4207;DHT22;2117;47.972;7.830;2022-11-20T05:33:03;7.10;99.90
4207;DHT22;2117;47.972;7.830;2022-11-20T05:35:29;7.10;99.90
4207;DHT22;2117;47.972;7.830;2022-11-20T05:37:54;7.10;99.90
4207;DHT22;2117;47.972;7.830;2022-11-20T05:40:20;7.10;99.90
4207;DHT22;2117;47.972;7.830;2022-11-20T05:42:45;7.00;99.90
4207;DHT22;2117;47.972;7.830;2022-11-20T05:45:11;7.00;99.90
4207;DHT22;2117;47.972;7.830;2022-11-20T05:47:36;7.00;99.90
4207;DHT22;2117;47.972;7.830;2022-11-20T05:50:02;6.90;99.90
4207;DHT22;2117;47.972;7.830;2022-11-20T05:52:29;7.00;99.90
4207;DHT22;2117;47.972;7.830;2022-11-20T05:54:55;7.00;99.90
4207;DHT22;2117;47.972;7.830;2022-11-20T05:57:20;7.00;99.90
4207;DHT22;2117;47.972;7.830;2022-11-20T05:59:46;6.90;99.90
4207;DHT22;2117;47.972;7.830;2022-11-20T06:02:11;7.00;99.90
4207;DHT22;2117;47.972;7.830;2022-11-20T06:04:37;7.00;99.90
4207;DHT22;2117;47.972;7.830;2022-11-20T06:07:05;7.00;99.90
4207;DHT22;2117;47.972;7.830;2022-11-20T06:09:30;7.00;99.90
4207;DHT22;2117;47.972;7.830;2022-11-20T06:11:56;7.00;99.90
4207;DHT22;2117;47.972;7.830;2022-11-20T06:14:21;7.00;99.90
4207;DHT22;2117;47.972;7.830;2022-11-20T06:16:47;7.00;99.90
4207;DHT22;2117;47.972;7.830;2022-11-20T06:19:12;7.10;99.90
4207;DHT22;2117;47.972;7.830;2022-11-20T06:21:38;7.10;99.90
4207;DHT22;2117;47.972;7.830;2022-11-20T06:24:04;7.10;99.90
4207;DHT22;2117;47.972;7.830;2022-11-20T06:26:30;7.10;99.90
4207;DHT22;2117;47.972;7.830;2022-11-20T06:28:56;7.10;99.90
4207;DHT22;2117;47.972;7.830;2022-11-20T06:31:23;7.10;99.90
4207;DHT22;2117;47.972;7.830;2022-11-20T06:33:49;7.10;99.90
4207;DHT22;2117;47.972;7.830;2022-11-20T06:36:18;7.10;99.90
4207;DHT22;2117;47.972;7.830;2022-11-20T06:38:44;7.10;99.90
4207;DHT22;2117;47.972;7.830;2022-11-20T06:41:16;7.00;99.90
4207;DHT22;2117;47.972;7.830;2022-11-20T06:43:42;7.00;99.90
4207;DHT22;2117;47.972;7.830;2022-11-20T06:46:12;7.00;99.90
4207;DHT22;2117;47.972;7.830;2022-11-20T06:48:38;7.00;99.90
4207;DHT22;2117;47.972;7.830;2022-11-20T06:51:06;7.00;99.90
4207;DHT22;2117;47.972;7.830;2022-11-20T06:53:32;6.90;99.90
4207;DHT22;2117;47.972;7.830;2022-11-20T06:55:58;7.00;99.90
4207;DHT22;2117;47.972;7.830;2022-11-20T06:58:26;7.00;99.90
4207;DHT22;2117;47.972;7.830;2022-11-20T07:00:52;7.00;99.90
4207;DHT22;2117;47.972;7.830;2022-11-20T07:03:18;7.00;99.90
4207;DHT22;2117;47.972;7.830;2022-11-20T07:05:43;7.00;99.90
4207;DHT22;2117;47.972;7.830;2022-11-20T07:08:10;7.00;99.90
4207;DHT22;2117;47.972;7.830;2022-11-20T07:10:36;7.00;99.90
4207;DHT22;2117;47.972;7.830;2022-11-20T07:13:02;7.00;99.90
4207;DHT22;2117;47.972;7.830;2022-11-20T07:15:27;7.00;99.90
4207;DHT22;2117;47.972;7.830;2022-11-20T07:17:53;7.00;99.90
4207;DHT22;2117;47.972;7.830;2022-11-20T07:20:18;7.00;99.90
4207;DHT22;2117;47.972;7.830;2022-11-20T07:22:44;7.00;99.90
4207;DHT22;2117;47.972;7.830;2022-11-20T07:25:10;7.10;99.90
4207;DHT22;2117;47.972;7.830;2022-11-20T07:27:36;7.10;99.90
4207;DHT22;2117;47.972;7.830;2022-11-20T07:30:03;7.10;99.90
4207;DHT22;2117;47.972;7.830;2022-11-20T07:32:29;7.10;99.90
4207;DHT22;2117;47.972;7.830;2022-11-20T07:34:54;7.10;99.90
4207;DHT22;2117;47.972;7.830;2022-11-20T07:37:20;7.10;99.90
4207;DHT22;2117;47.972;7.830;2022-11-20T07:39:45;7.10;99.90
4207;DHT22;2117;47.972;7.830;2022-11-20T07:42:11;7.10;99.90
4207;DHT22;2117;47.972;7.830;2022-11-20T07:44:37;7.20;99.90
4207;DHT22;2117;47.972;7.830;2022-11-20T07:47:03;7.20;99.90
4207;DHT22;2117;47.972;7.830;2022-11-20T07:49:29;7.20;99.90
4207;DHT22;2117;47.972;7.830;2022-11-20T07:51:55;7.20;99.90
4207;DHT22;2117;47.972;7.830;2022-11-20T07:54:21;7.20;99.90
4207;DHT22;2117;47.972;7.830;2022-11-20T07:56:47;7.10;99.90
4207;DHT22;2117;47.972;7.830;2022-11-20T07:59:13;7.10;99.90
4207;DHT22;2117;47.972;7.830;2022-11-20T08:01:39;7.10;99.90
4207;DHT22;2117;47.972;7.830;2022-11-20T08:04:05;7.10;99.90
4207;DHT22;2117;47.972;7.830;2022-11-20T08:06:31;7.00;99.90
4207;DHT22;2117;47.972;7.830;2022-11-20T08:08:57;7.00;99.90
4207;DHT22;2117;47.972;7.830;2022-11-20T08:11:23;6.90;99.90
4207;DHT22;2117;47.972;7.830;2022-11-20T08:14:07;6.90;99.90
4207;DHT22;2117;47.972;7.830;2022-11-20T08:16:43;6.90;99.90
4207;DHT22;2117;47.972;7.830;2022-11-20T08:19:09;6.90;99.90
4207;DHT22;2117;47.972;7.830;2022-11-20T08:21:35;6.90;99.90
4207;DHT22;2117;47.972;7.830;2022-11-20T08:24:01;6.90;99.90
4207;DHT22;2117;47.972;7.830;2022-11-20T08:26:26;7.00;99.90
4207;DHT22;2117;47.972;7.830;2022-11-20T08:28:56;7.00;99.90
4207;DHT22;2117;47.972;7.830;2022-11-20T08:31:23;7.00;99.90
4207;DHT22;2117;47.972;7.830;2022-11-20T08:33:49;7.00;99.90
4207;DHT22;2117;47.972;7.830;2022-11-20T08:36:15;7.10;99.90
4207;DHT22;2117;47.972;7.830;2022-11-20T08:38:41;7.00;99.90
4207;DHT22;2117;47.972;7.830;2022-11-20T08:41:07;7.10;99.90
4207;DHT22;2117;47.972;7.830;2022-11-20T08:46:20;7.10;99.90
4207;DHT22;2117;47.972;7.830;2022-11-20T08:48:46;7.10;99.90
4207;DHT22;2117;47.972;7.830;2022-11-20T08:51:12;7.10;99.90
4207;DHT22;2117;47.972;7.830;2022-11-20T08:53:38;7.10;99.90
4207;DHT22;2117;47.972;7.830;2022-11-20T08:56:05;7.20;99.90
4207;DHT22;2117;47.972;7.830;2022-11-20T08:58:30;7.20;99.90
4207;DHT22;2117;47.972;7.830;2022-11-20T09:00:56;7.20;99.90
4207;DHT22;2117;47.972;7.830;2022-11-20T09:03:22;7.20;99.90
4207;DHT22;2117;47.972;7.830;2022-11-20T09:05:48;7.30;99.90
4207;DHT22;2117;47.972;7.830;2022-11-20T09:08:13;7.30;99.90
4207;DHT22;2117;47.972;7.830;2022-11-20T09:10:39;7.30;99.90
4207;DHT22;2117;47.972;7.830;2022-11-20T09:13:07;7.30;99.90
4207;DHT22;2117;47.972;7.830;2022-11-20T09:15:33;7.30;99.90
4207;DHT22;2117;47.972;7.830;2022-11-20T09:18:02;7.20;99.90
4207;DHT22;2117;47.972;7.830;2022-11-20T09:20:29;7.20;99.90
4207;DHT22;2117;47.972;7.830;2022-11-20T09:22:55;7.20;99.90
4207;DHT22;2117;47.972;7.830;2022-11-20T09:25:21;7.20;99.90
4207;DHT22;2117;47.972;7.830;2022-11-20T09:27:47;7.20;99.90
4207;DHT22;2117;47.972;7.830;2022-11-20T09:30:16;7.30;99.90
4207;DHT22;2117;47.972;7.830;2022-11-20T09:32:42;7.30;99.90
4207;DHT22;2117;47.972;7.830;2022-11-20T09:35:08;7.30;99.90
4207;DHT22;2117;47.972;7.830;2022-11-20T09:37:34;7.30;99.90
4207;DHT22;2117;47.972;7.830;2022-11-20T09:40:00;7.30;99.90
4207;DHT22;2117;47.972;7.830;2022-11-20T09:47:40;7.40;99.90
4207;DHT22;2117;47.972;7.830;2022-11-20T09:52:54;7.40;99.90
4207;DHT22;2117;47.972;7.830;2022-11-20T09:55:22;7.40;99.90
4207;DHT22;2117;47.972;7.830;2022-11-20T09:57:51;7.50;99.90
4207;DHT22;2117;47.972;7.830;2022-11-20T10:00:17;7.60;99.90
4207;DHT22;2117;47.972;7.830;2022-11-20T10:03:03;7.60;99.90
4207;DHT22;2117;47.972;7.830;2022-11-20T10:05:39;7.60;99.90
4207;DHT22;2117;47.972;7.830;2022-11-20T10:10:44;7.70;99.90
4207;DHT22;2117;47.972;7.830;2022-11-20T10:13:20;7.70;99.90
4207;DHT22;2117;47.972;7.830;2022-11-20T10:19:10;7.80;99.90
4207;DHT22;2117;47.972;7.830;2022-11-20T10:24:28;7.70;99.90
4207;DHT22;2117;47.972;7.830;2022-11-20T10:27:34;7.70;99.90
4207;DHT22;2117;47.972;7.830;2022-11-20T10:30:11;7.70;99.90
4207;DHT22;2117;47.972;7.830;2022-11-20T10:32:43;7.70;99.90
4207;DHT22;2117;47.972;7.830;2022-11-20T10:35:34;7.70;99.90
4207;DHT22;2117;47.972;7.830;2022-11-20T10:38:05;7.70;99.90
4207;DHT22;2117;47.972;7.830;2022-11-20T10:40:41;7.80;99.90
4207;DHT22;2117;47.972;7.830;2022-11-20T10:43:14;7.80;99.90
4207;DHT22;2117;47.972;7.830;2022-11-20T10:45:52;7.80;99.90
4207;DHT22;2117;47.972;7.830;2022-11-20T10:48:24;7.80;99.90
4207;DHT22;2117;47.972;7.830;2022-11-20T10:51:05;7.80;99.90
4207;DHT22;2117;47.972;7.830;2022-11-20T10:53:47;7.90;99.90
4207;DHT22;2117;47.972;7.830;2022-11-20T10:56:31;8.00;99.90
4207;DHT22;2117;47.972;7.830;2022-11-20T10:59:25;8.00;99.90
4207;DHT22;2117;47.972;7.830;2022-11-20T11:01:53;8.00;99.90
4207;DHT22;2117;47.972;7.830;2022-11-20T11:04:42;8.00;99.90
4207;DHT22;2117;47.972;7.830;2022-11-20T11:07:44;8.10;99.90
4207;DHT22;2117;47.972;7.830;2022-11-20T11:12:48;8.30;99.90
4207;DHT22;2117;47.972;7.830;2022-11-20T11:15:49;8.30;99.90
4207;DHT22;2117;47.972;7.830;2022-11-20T11:18:31;8.30;99.90
4207;DHT22;2117;47.972;7.830;2022-11-20T11:21:00;8.20;99.90
4207;DHT22;2117;47.972;7.830;2022-11-20T11:23:35;8.30;99.90
4207;DHT22;2117;47.972;7.830;2022-11-20T11:26:05;8.30;99.90
4207;DHT22;2117;47.972;7.830;2022-11-20T11:28:31;8.30;99.90
4207;DHT22;2117;47.972;7.830;2022-11-20T11:30:57;8.30;99.90
4207;DHT22;2117;47.972;7.830;2022-11-20T11:33:25;8.30;99.90
4207;DHT22;2117;47.972;7.830;2022-11-20T11:36:14;8.30;99.90
4207;DHT22;2117;47.972;7.830;2022-11-20T11:38:42;8.40;99.90
4207;DHT22;2117;47.972;7.830;2022-11-20T11:41:15;8.50;99.90
4207;DHT22;2117;47.972;7.830;2022-11-20T11:43:53;8.50;99.90
4207;DHT22;2117;47.972;7.830;2022-11-20T11:46:39;8.40;99.90
4207;DHT22;2117;47.972;7.830;2022-11-20T11:52:08;8.30;99.90
4207;DHT22;2117;47.972;7.830;2022-11-20T11:54:53;8.30;99.90
4207;DHT22;2117;47.972;7.830;2022-11-20T11:57:24;8.70;99.90
4207;DHT22;2117;47.972;7.830;2022-11-20T12:00:03;9.00;99.90
4207;DHT22;2117;47.972;7.830;2022-11-20T12:05:41;9.30;99.90
4207;DHT22;2117;47.972;7.830;2022-11-20T12:10:56;9.30;99.90
4207;DHT22;2117;47.972;7.830;2022-11-20T12:16:00;9.50;99.90
4207;DHT22;2117;47.972;7.830;2022-11-20T12:18:27;9.90;99.90
4207;DHT22;2117;47.972;7.830;2022-11-20T12:23:58;10.10;99.90
4207;DHT22;2117;47.972;7.830;2022-11-20T12:29:46;10.00;99.90
4207;DHT22;2117;47.972;7.830;2022-11-20T12:35:17;9.60;99.90
4207;DHT22;2117;47.972;7.830;2022-11-20T12:37:48;9.50;99.90
4207;DHT22;2117;47.972;7.830;2022-11-20T12:40:48;9.40;99.90
4207;DHT22;2117;47.972;7.830;2022-11-20T12:43:27;9.20;99.90
4207;DHT22;2117;47.972;7.830;2022-11-20T12:46:53;9.00;99.90
4207;DHT22;2117;47.972;7.830;2022-11-20T12:52:11;9.10;99.90
4207;DHT22;2117;47.972;7.830;2022-11-20T13:00:20;9.10;99.90
4207;DHT22;2117;47.972;7.830;2022-11-20T13:03:01;9.00;99.90
4207;DHT22;2117;47.972;7.830;2022-11-20T13:05:43;8.90;99.90
4207;DHT22;2117;47.972;7.830;2022-11-20T13:08:24;8.80;99.90
4207;DHT22;2117;47.972;7.830;2022-11-20T13:13:52;8.70;99.90
4207;DHT22;2117;47.972;7.830;2022-11-20T13:16:53;8.70;99.90
4207;DHT22;2117;47.972;7.830;2022-11-20T13:19:21;8.70;99.90
4207;DHT22;2117;47.972;7.830;2022-11-20T13:21:48;8.80;99.90
4207;DHT22;2117;47.972;7.830;2022-11-20T13:24:24;8.70;99.90
4207;DHT22;2117;47.972;7.830;2022-11-20T13:27:17;8.80;99.90
4207;DHT22;2117;47.972;7.830;2022-11-20T13:29:45;8.90;99.90
4207;DHT22;2117;47.972;7.830;2022-11-20T13:32:20;8.90;99.90
4207;DHT22;2117;47.972;7.830;2022-11-20T13:34:54;9.00;99.90
4207;DHT22;2117;47.972;7.830;2022-11-20T13:37:30;9.10;99.90
4207;DHT22;2117;47.972;7.830;2022-11-20T13:42:40;9.60;99.90
4207;DHT22;2117;47.972;7.830;2022-11-20T13:45:20;9.60;99.90
4207;DHT22;2117;47.972;7.830;2022-11-20T13:47:50;9.70;99.90
4207;DHT22;2117;47.972;7.830;2022-11-20T13:50:16;9.90;99.90
4207;DHT22;2117;47.972;7.830;2022-11-20T13:55:38;10.40;99.90
4207;DHT22;2117;47.972;7.830;2022-11-20T13:58:28;10.20;99.90
4207;DHT22;2117;47.972;7.830;2022-11-20T14:01:05;10.20;99.90
4207;DHT22;2117;47.972;7.830;2022-11-20T14:03:34;9.90;99.90
4207;DHT22;2117;47.972;7.830;2022-11-20T14:06:10;9.80;99.90
4207;DHT22;2117;47.972;7.830;2022-11-20T14:08:47;9.50;99.90
4207;DHT22;2117;47.972;7.830;2022-11-20T14:11:24;9.10;99.90
4207;DHT22;2117;47.972;7.830;2022-11-20T14:16:22;9.00;99.90
4207;DHT22;2117;47.972;7.830;2022-11-20T14:18:48;9.00;99.90
4207;DHT22;2117;47.972;7.830;2022-11-20T14:21:28;9.00;99.90
4207;DHT22;2117;47.972;7.830;2022-11-20T14:24:06;9.00;99.90
4207;DHT22;2117;47.972;7.830;2022-11-20T14:26:32;9.00;99.90
4207;DHT22;2117;47.972;7.830;2022-11-20T14:28:59;9.00;99.90
4207;DHT22;2117;47.972;7.830;2022-11-20T14:31:26;9.00;99.90
4207;DHT22;2117;47.972;7.830;2022-11-20T14:33:53;9.10;99.90
4207;DHT22;2117;47.972;7.830;2022-11-20T14:36:22;9.10;99.90
4207;DHT22;2117;47.972;7.830;2022-11-20T14:38:49;9.00;99.90
4207;DHT22;2117;47.972;7.830;2022-11-20T14:41:21;9.00;99.90
4207;DHT22;2117;47.972;7.830;2022-11-20T14:43:55;9.00;99.90
4207;DHT22;2117;47.972;7.830;2022-11-20T14:46:21;9.00;99.90
4207;DHT22;2117;47.972;7.830;2022-11-20T14:48:50;9.00;99.90
4207;DHT22;2117;47.972;7.830;2022-11-20T14:51:32;8.90;99.90
4207;DHT22;2117;47.972;7.830;2022-11-20T14:54:18;8.90;99.90
4207;DHT22;2117;47.972;7.830;2022-11-20T14:56:58;8.90;99.90
4207;DHT22;2117;47.972;7.830;2022-11-20T14:59:26;8.80;99.90
4207;DHT22;2117;47.972;7.830;2022-11-20T15:02:08;8.80;99.90
4207;DHT22;2117;47.972;7.830;2022-11-20T15:04:49;8.80;99.90
4207;DHT22;2117;47.972;7.830;2022-11-20T15:07:30;8.80;99.90
4207;DHT22;2117;47.972;7.830;2022-11-20T15:10:02;8.90;99.90
4207;DHT22;2117;47.972;7.830;2022-11-20T15:12:30;8.90;99.90
4207;DHT22;2117;47.972;7.830;2022-11-20T15:14:56;8.90;99.90
4207;DHT22;2117;47.972;7.830;2022-11-20T15:17:22;8.80;99.90
4207;DHT22;2117;47.972;7.830;2022-11-20T15:19:48;8.70;99.90
4207;DHT22;2117;47.972;7.830;2022-11-20T15:22:13;8.70;99.90
4207;DHT22;2117;47.972;7.830;2022-11-20T15:24:41;8.80;99.90
4207;DHT22;2117;47.972;7.830;2022-11-20T15:27:08;8.70;99.90
4207;DHT22;2117;47.972;7.830;2022-11-20T15:29:34;8.70;99.90
4207;DHT22;2117;47.972;7.830;2022-11-20T15:32:00;8.70;99.90
4207;DHT22;2117;47.972;7.830;2022-11-20T15:34:27;8.70;99.90
4207;DHT22;2117;47.972;7.830;2022-11-20T15:36:53;8.60;99.90
4207;DHT22;2117;47.972;7.830;2022-11-20T15:39:19;8.60;99.90
4207;DHT22;2117;47.972;7.830;2022-11-20T15:41:45;8.60;99.90
4207;DHT22;2117;47.972;7.830;2022-11-20T15:44:11;8.50;99.90
4207;DHT22;2117;47.972;7.830;2022-11-20T15:46:39;8.50;99.90
4207;DHT22;2117;47.972;7.830;2022-11-20T15:49:16;8.50;99.90
4207;DHT22;2117;47.972;7.830;2022-11-20T15:51:47;8.50;99.90
4207;DHT22;2117;47.972;7.830;2022-11-20T15:54:14;8.50;99.90
4207;DHT22;2117;47.972;7.830;2022-11-20T15:56:41;8.50;99.90
4207;DHT22;2117;47.972;7.830;2022-11-20T15:59:07;8.40;99.90
4207;DHT22;2117;47.972;7.830;2022-11-20T16:01:32;8.40;99.90
4207;DHT22;2117;47.972;7.830;2022-11-20T16:03:59;8.30;99.90
4207;DHT22;2117;47.972;7.830;2022-11-20T16:06:25;8.30;99.90
4207;DHT22;2117;47.972;7.830;2022-11-20T16:08:50;8.40;99.90
4207;DHT22;2117;47.972;7.830;2022-11-20T16:11:16;8.30;99.90
4207;DHT22;2117;47.972;7.830;2022-11-20T16:13:42;8.30;99.90
4207;DHT22;2117;47.972;7.830;2022-11-20T16:16:32;8.30;99.90
4207;DHT22;2117;47.972;7.830;2022-11-20T16:18:59;8.30;99.90
4207;DHT22;2117;47.972;7.830;2022-11-20T16:21:25;8.20;99.90
4207;DHT22;2117;47.972;7.830;2022-11-20T16:23:58;8.20;99.90
4207;DHT22;2117;47.972;7.830;2022-11-20T16:26:24;8.20;99.90
4207;DHT22;2117;47.972;7.830;2022-11-20T16:28:49;8.20;99.90
4207;DHT22;2117;47.972;7.830;2022-11-20T16:31:17;8.20;99.90
4207;DHT22;2117;47.972;7.830;2022-11-20T16:33:43;8.20;99.90
4207;DHT22;2117;47.972;7.830;2022-11-20T16:36:14;8.10;99.90
4207;DHT22;2117;47.972;7.830;2022-11-20T16:38:40;8.20;99.90
4207;DHT22;2117;47.972;7.830;2022-11-20T16:41:06;8.20;99.90
4207;DHT22;2117;47.972;7.830;2022-11-20T16:43:44;8.20;99.90
4207;DHT22;2117;47.972;7.830;2022-11-20T16:46:10;8.30;99.90
4207;DHT22;2117;47.972;7.830;2022-11-20T16:48:36;8.20;99.90
4207;DHT22;2117;47.972;7.830;2022-11-20T16:51:02;8.30;99.90
4207;DHT22;2117;47.972;7.830;2022-11-20T16:53:27;8.20;99.90
4207;DHT22;2117;47.972;7.830;2022-11-20T16:55:53;8.20;99.90
4207;DHT22;2117;47.972;7.830;2022-11-20T16:58:18;8.30;99.90
4207;DHT22;2117;47.972;7.830;2022-11-20T17:00:44;8.20;99.90
4207;DHT22;2117;47.972;7.830;2022-11-20T17:03:10;8.20;99.90
4207;DHT22;2117;47.972;7.830;2022-11-20T17:05:35;8.20;99.90
4207;DHT22;2117;47.972;7.830;2022-11-20T17:08:01;8.20;99.90
4207;DHT22;2117;47.972;7.830;2022-11-20T17:10:27;8.30;99.90
4207;DHT22;2117;47.972;7.830;2022-11-20T17:12:53;8.30;99.90
4207;DHT22;2117;47.972;7.830;2022-11-20T17:15:18;8.30;99.90
4207;DHT22;2117;47.972;7.830;2022-11-20T17:17:44;8.30;99.90
4207;DHT22;2117;47.972;7.830;2022-11-20T17:20:09;8.30;99.90
4207;DHT22;2117;47.972;7.830;2022-11-20T17:22:36;8.30;99.90
4207;DHT22;2117;47.972;7.830;2022-11-20T17:25:02;8.20;99.90
4207;DHT22;2117;47.972;7.830;2022-11-20T17:27:28;8.20;99.90
4207;DHT22;2117;47.972;7.830;2022-11-20T17:29:53;8.20;99.90
4207;DHT22;2117;47.972;7.830;2022-11-20T17:32:19;8.20;99.90
4207;DHT22;2117;47.972;7.830;2022-11-20T17:34:45;8.20;99.90
4207;DHT22;2117;47.972;7.830;2022-11-20T17:37:10;8.20;99.90
4207;DHT22;2117;47.972;7.830;2022-11-20T17:39:36;8.10;99.90
4207;DHT22;2117;47.972;7.830;2022-11-20T17:42:01;8.30;99.90
4207;DHT22;2117;47.972;7.830;2022-11-20T17:44:45;8.40;99.90
4207;DHT22;2117;47.972;7.830;2022-11-20T17:47:11;8.30;99.90
4207;DHT22;2117;47.972;7.830;2022-11-20T17:49:37;8.20;99.90
4207;DHT22;2117;47.972;7.830;2022-11-20T17:52:03;8.20;99.90
4207;DHT22;2117;47.972;7.830;2022-11-20T17:54:29;8.20;99.90
4207;DHT22;2117;47.972;7.830;2022-11-20T17:56:54;8.10;99.90
4207;DHT22;2117;47.972;7.830;2022-11-20T17:59:39;8.20;99.90
4207;DHT22;2117;47.972;7.830;2022-11-20T18:02:04;8.10;99.90
4207;DHT22;2117;47.972;7.830;2022-11-20T18:04:30;8.00;99.90
4207;DHT22;2117;47.972;7.830;2022-11-20T18:06:56;7.90;99.90
4207;DHT22;2117;47.972;7.830;2022-11-20T18:09:21;7.90;99.90
4207;DHT22;2117;47.972;7.830;2022-11-20T18:11:47;7.70;99.90
4207;DHT22;2117;47.972;7.830;2022-11-20T18:14:14;7.30;99.90
4207;DHT22;2117;47.972;7.830;2022-11-20T18:19:29;6.70;99.90
4207;DHT22;2117;47.972;7.830;2022-11-20T18:21:55;6.50;99.90
4207;DHT22;2117;47.972;7.830;2022-11-20T18:24:21;6.40;99.90
4207;DHT22;2117;47.972;7.830;2022-11-20T18:26:47;6.30;99.90
4207;DHT22;2117;47.972;7.830;2022-11-20T18:29:13;6.20;99.90
4207;DHT22;2117;47.972;7.830;2022-11-20T18:31:39;6.10;99.90
4207;DHT22;2117;47.972;7.830;2022-11-20T18:34:05;6.10;99.90
4207;DHT22;2117;47.972;7.830;2022-11-20T18:36:32;6.00;99.90
4207;DHT22;2117;47.972;7.830;2022-11-20T18:38:59;6.00;99.90
4207;DHT22;2117;47.972;7.830;2022-11-20T18:41:28;6.00;99.90
4207;DHT22;2117;47.972;7.830;2022-11-20T18:44:14;6.00;99.90
4207;DHT22;2117;47.972;7.830;2022-11-20T18:46:59;6.00;99.90
4207;DHT22;2117;47.972;7.830;2022-11-20T18:49:25;6.00;99.90
4207;DHT22;2117;47.972;7.830;2022-11-20T18:51:51;5.90;99.90
4207;DHT22;2117;47.972;7.830;2022-11-20T18:54:16;5.90;99.90
4207;DHT22;2117;47.972;7.830;2022-11-20T18:56:42;5.90;99.90
4207;DHT22;2117;47.972;7.830;2022-11-20T18:59:09;5.90;99.90
4207;DHT22;2117;47.972;7.830;2022-11-20T19:01:35;6.00;99.90
4207;DHT22;2117;47.972;7.830;2022-11-20T19:04:11;6.00;99.90
4207;DHT22;2117;47.972;7.830;2022-11-20T19:06:39;6.00;99.90
4207;DHT22;2117;47.972;7.830;2022-11-20T19:09:05;6.00;99.90
4207;DHT22;2117;47.972;7.830;2022-11-20T19:11:33;5.90;99.90
4207;DHT22;2117;47.972;7.830;2022-11-20T19:13:59;5.90;99.90
4207;DHT22;2117;47.972;7.830;2022-11-20T19:16:25;5.90;99.90
4207;DHT22;2117;47.972;7.830;2022-11-20T19:18:50;5.90;99.90
4207;DHT22;2117;47.972;7.830;2022-11-20T19:21:21;5.90;99.90
4207;DHT22;2117;47.972;7.830;2022-11-20T19:23:52;5.90;99.90
4207;DHT22;2117;47.972;7.830;2022-11-20T19:26:19;5.90;99.90
4207;DHT22;2117;47.972;7.830;2022-11-20T19:28:45;5.90;99.90
4207;DHT22;2117;47.972;7.830;2022-11-20T19:31:12;5.90;99.90
4207;DHT22;2117;47.972;7.830;2022-11-20T19:33:38;5.90;99.90
4207;DHT22;2117;47.972;7.830;2022-11-20T19:36:25;5.90;99.90
4207;DHT22;2117;47.972;7.830;2022-11-20T19:38:52;5.90;99.90
4207;DHT22;2117;47.972;7.830;2022-11-20T19:41:21;5.90;99.90
4207;DHT22;2117;47.972;7.830;2022-11-20T19:43:54;5.90;99.90
4207;DHT22;2117;47.972;7.830;2022-11-20T19:46:19;5.90;99.90
4207;DHT22;2117;47.972;7.830;2022-11-20T19:48:46;5.90;99.90
4207;DHT22;2117;47.972;7.830;2022-11-20T19:51:14;5.90;99.90
4207;DHT22;2117;47.972;7.830;2022-11-20T19:53:40;5.90;99.90
4207;DHT22;2117;47.972;7.830;2022-11-20T19:56:06;5.90;99.90
4207;DHT22;2117;47.972;7.830;2022-11-20T19:58:33;5.90;99.90
4207;DHT22;2117;47.972;7.830;2022-11-20T20:01:09;5.90;99.90
4207;DHT22;2117;47.972;7.830;2022-11-20T20:03:36;6.10;99.90
4207;DHT22;2117;47.972;7.830;2022-11-20T20:06:13;6.10;99.90